sensor_id;sensor_type;location;lat;lon;timestamp;pressure;altitude;pressure_sealevel;temperature;humidity
60874;BME280;46715;40.642;-7.920;2023-02-18T00:01:14;97194.44;;;10.72;39.25
60874;BME280;46715;40.642;-7.920;2023-02-18T00:03:15;97189.66;;;10.64;39.29
60874;BME280;46715;40.642;-7.920;2023-02-18T00:05:16;97186.50;;;10.62;38.90
60874;BME280;46715;40.642;-7.920;2023-02-18T00:07:17;97185.78;;;10.67;38.76
60874;BME280;46715;40.642;-7.920;2023-02-18T00:09:18;97191.31;;;10.70;38.66
60874;BME280;46715;40.642;-7.920;2023-02-18T00:11:20;97189.53;;;10.76;38.60
60874;BME280;46715;40.642;-7.920;2023-02-18T00:13:21;97188.53;;;10.82;38.58
60874;BME280;46715;40.642;-7.920;2023-02-18T00:15:22;97180.69;;;11.04;37.95
60874;BME280;46715;40.642;-7.920;2023-02-18T00:17:23;97177.63;;;11.13;37.55
60874;BME280;46715;40.642;-7.920;2023-02-18T00:19:23;97182.34;;;11.16;37.45
60874;BME280;46715;40.642;-7.920;2023-02-18T00:21:25;97180.28;;;11.18;37.71
60874;BME280;46715;40.642;-7.920;2023-02-18T00:23:25;97179.97;;;11.14;37.81
60874;BME280;46715;40.642;-7.920;2023-02-18T00:25:26;97179.34;;;11.02;38.14
60874;BME280;46715;40.642;-7.920;2023-02-18T00:27:27;97181.06;;;10.91;38.41
60874;BME280;46715;40.642;-7.920;2023-02-18T00:29:28;97178.84;;;10.78;38.49
60874;BME280;46715;40.642;-7.920;2023-02-18T00:31:33;97178.28;;;10.75;38.79
60874;BME280;46715;40.642;-7.920;2023-02-18T00:33:35;97183.94;;;10.67;38.89
60874;BME280;46715;40.642;-7.920;2023-02-18T00:35:36;97181.06;;;10.64;39.33
60874;BME280;46715;40.642;-7.920;2023-02-18T00:37:37;97183.59;;;10.58;39.72
60874;BME280;46715;40.642;-7.920;2023-02-18T00:39:38;97189.78;;;10.52;40.37
60874;BME280;46715;40.642;-7.920;2023-02-18T00:41:40;97191.34;;;10.53;40.41
60874;BME280;46715;40.642;-7.920;2023-02-18T00:43:41;97200.41;;;10.46;40.50
60874;BME280;46715;40.642;-7.920;2023-02-18T00:45:42;97189.66;;;10.42;41.16
60874;BME280;46715;40.642;-7.920;2023-02-18T00:47:42;97186.34;;;10.30;41.25
60874;BME280;46715;40.642;-7.920;2023-02-18T00:49:44;97187.22;;;10.35;40.58
60874;BME280;46715;40.642;-7.920;2023-02-18T00:51:45;97181.59;;;10.44;40.24
60874;BME280;46715;40.642;-7.920;2023-02-18T00:53:46;97178.38;;;10.58;39.93
60874;BME280;46715;40.642;-7.920;2023-02-18T00:55:47;97180.03;;;10.65;40.17
60874;BME280;46715;40.642;-7.920;2023-02-18T00:57:48;97172.19;;;10.65;40.10
60874;BME280;46715;40.642;-7.920;2023-02-18T00:59:49;97178.25;;;10.70;40.20
60874;BME280;46715;40.642;-7.920;2023-02-18T01:01:50;97171.75;;;10.73;40.16
60874;BME280;46715;40.642;-7.920;2023-02-18T01:03:51;97177.03;;;10.78;39.79
60874;BME280;46715;40.642;-7.920;2023-02-18T01:05:52;97167.53;;;10.94;39.60
60874;BME280;46715;40.642;-7.920;2023-02-18T01:07:53;97165.31;;;11.08;39.51
60874;BME280;46715;40.642;-7.920;2023-02-18T01:09:56;97157.31;;;11.20;38.90
60874;BME280;46715;40.642;-7.920;2023-02-18T01:11:56;97156.88;;;11.28;39.01
60874;BME280;46715;40.642;-7.920;2023-02-18T01:13:57;97162.25;;;11.49;38.46
60874;BME280;46715;40.642;-7.920;2023-02-18T01:15:58;97155.31;;;11.65;38.18
60874;BME280;46715;40.642;-7.920;2023-02-18T01:17:59;97150.94;;;11.75;38.32
60874;BME280;46715;40.642;-7.920;2023-02-18T01:20:00;97156.13;;;12.13;37.26
60874;BME280;46715;40.642;-7.920;2023-02-18T01:22:01;97152.00;;;12.22;37.52
60874;BME280;46715;40.642;-7.920;2023-02-18T01:24:03;97144.69;;;12.24;36.91
60874;BME280;46715;40.642;-7.920;2023-02-18T01:26:04;97147.09;;;12.36;37.07
60874;BME280;46715;40.642;-7.920;2023-02-18T01:28:06;97137.69;;;12.40;37.20
60874;BME280;46715;40.642;-7.920;2023-02-18T01:30:11;97150.28;;;12.59;36.87
60874;BME280;46715;40.642;-7.920;2023-02-18T01:32:12;97141.94;;;12.62;36.50
60874;BME280;46715;40.642;-7.920;2023-02-18T01:34:14;97146.13;;;12.58;36.94
60874;BME280;46715;40.642;-7.920;2023-02-18T01:36:16;97141.69;;;12.74;36.61
60874;BME280;46715;40.642;-7.920;2023-02-18T01:38:18;97153.47;;;12.76;36.51
60874;BME280;46715;40.642;-7.920;2023-02-18T01:40:21;97149.06;;;12.92;35.79
60874;BME280;46715;40.642;-7.920;2023-02-18T01:42:25;97143.06;;;12.97;35.66
60874;BME280;46715;40.642;-7.920;2023-02-18T01:44:27;97148.56;;;13.11;35.40
60874;BME280;46715;40.642;-7.920;2023-02-18T01:46:28;97146.72;;;13.01;35.73
60874;BME280;46715;40.642;-7.920;2023-02-18T01:48:45;97159.28;;;12.94;35.91
60874;BME280;46715;40.642;-7.920;2023-02-18T01:50:55;97147.50;;;12.91;35.50
60874;BME280;46715;40.642;-7.920;2023-02-18T01:52:56;97141.97;;;12.88;35.72
60874;BME280;46715;40.642;-7.920;2023-02-18T01:54:57;97143.03;;;12.87;35.59
60874;BME280;46715;40.642;-7.920;2023-02-18T01:57:14;97144.03;;;12.60;36.10
60874;BME280;46715;40.642;-7.920;2023-02-18T01:59:25;97144.31;;;12.74;35.62
60874;BME280;46715;40.642;-7.920;2023-02-18T02:01:30;97147.22;;;12.77;35.72
60874;BME280;46715;40.642;-7.920;2023-02-18T02:03:31;97135.72;;;12.78;35.81
60874;BME280;46715;40.642;-7.920;2023-02-18T02:05:33;97138.81;;;12.75;36.05
60874;BME280;46715;40.642;-7.920;2023-02-18T02:07:34;97131.97;;;12.59;36.17
60874;BME280;46715;40.642;-7.920;2023-02-18T02:09:35;97127.56;;;12.70;35.78
60874;BME280;46715;40.642;-7.920;2023-02-18T02:16:25;97132.31;;;12.83;35.92
60874;BME280;46715;40.642;-7.920;2023-02-18T02:28:03;97120.28;;;12.87;36.34
60874;BME280;46715;40.642;-7.920;2023-02-18T02:30:41;97117.91;;;12.86;36.02
60874;BME280;46715;40.642;-7.920;2023-02-18T02:33:11;97115.81;;;12.93;35.86
60874;BME280;46715;40.642;-7.920;2023-02-18T02:40:03;97112.69;;;13.06;35.77
60874;BME280;46715;40.642;-7.920;2023-02-18T02:45:09;97106.69;;;13.01;35.91
60874;BME280;46715;40.642;-7.920;2023-02-18T02:46:46;97104.31;;;12.78;36.18
60874;BME280;46715;40.642;-7.920;2023-02-18T02:48:58;97114.22;;;12.71;36.90
60874;BME280;46715;40.642;-7.920;2023-02-18T02:51:17;97111.59;;;12.66;36.81
60874;BME280;46715;40.642;-7.920;2023-02-18T02:53:27;97111.06;;;12.54;37.23
60874;BME280;46715;40.642;-7.920;2023-02-18T02:55:29;97112.88;;;12.48;37.10
60874;BME280;46715;40.642;-7.920;2023-02-18T02:59:43;97108.66;;;12.42;37.18
60874;BME280;46715;40.642;-7.920;2023-02-18T03:09:57;97100.50;;;12.28;38.08
60874;BME280;46715;40.642;-7.920;2023-02-18T03:16:48;97100.69;;;12.01;38.23
60874;BME280;46715;40.642;-7.920;2023-02-18T03:19:08;97104.09;;;12.06;38.33
60874;BME280;46715;40.642;-7.920;2023-02-18T03:21:25;97101.13;;;11.92;38.79
60874;BME280;46715;40.642;-7.920;2023-02-18T03:23:31;97096.66;;;11.83;38.82
60874;BME280;46715;40.642;-7.920;2023-02-18T03:25:34;97105.75;;;11.75;39.23
60874;BME280;46715;40.642;-7.920;2023-02-18T03:27:45;97103.13;;;11.75;38.90
60874;BME280;46715;40.642;-7.920;2023-02-18T03:29:58;97115.03;;;11.98;38.90
60874;BME280;46715;40.642;-7.920;2023-02-18T03:32:03;97107.47;;;12.02;38.66
60874;BME280;46715;40.642;-7.920;2023-02-18T03:34:12;97104.34;;;12.10;38.52
60874;BME280;46715;40.642;-7.920;2023-02-18T03:36:18;97107.78;;;12.16;38.42
60874;BME280;46715;40.642;-7.920;2023-02-18T03:40:23;97098.03;;;11.96;38.65
60874;BME280;46715;40.642;-7.920;2023-02-18T03:42:26;97110.53;;;11.93;38.62
60874;BME280;46715;40.642;-7.920;2023-02-18T03:44:29;97100.59;;;11.90;38.83
60874;BME280;46715;40.642;-7.920;2023-02-18T03:46:30;97102.38;;;11.85;38.61
60874;BME280;46715;40.642;-7.920;2023-02-18T03:48:32;97096.66;;;11.88;38.53
60874;BME280;46715;40.642;-7.920;2023-02-18T03:50:33;97094.03;;;11.88;38.73
60874;BME280;46715;40.642;-7.920;2023-02-18T03:52:34;97086.03;;;12.05;38.20
60874;BME280;46715;40.642;-7.920;2023-02-18T03:54:36;97083.44;;;12.10;38.52
60874;BME280;46715;40.642;-7.920;2023-02-18T03:56:37;97080.25;;;11.98;38.65
60874;BME280;46715;40.642;-7.920;2023-02-18T03:58:38;97085.00;;;12.01;38.54
60874;BME280;46715;40.642;-7.920;2023-02-18T04:00:39;97079.53;;;12.13;38.03
60874;BME280;46715;40.642;-7.920;2023-02-18T04:02:40;97081.91;;;12.19;37.76
60874;BME280;46715;40.642;-7.920;2023-02-18T04:04:41;97085.84;;;12.27;37.88
60874;BME280;46715;40.642;-7.920;2023-02-18T04:06:42;97084.28;;;12.31;37.64
60874;BME280;46715;40.642;-7.920;2023-02-18T04:08:43;97088.50;;;12.32;37.55
60874;BME280;46715;40.642;-7.920;2023-02-18T04:10:44;97087.19;;;12.35;37.80
60874;BME280;46715;40.642;-7.920;2023-02-18T04:12:45;97086.69;;;12.33;37.47
60874;BME280;46715;40.642;-7.920;2023-02-18T04:14:46;97080.16;;;12.40;37.55
60874;BME280;46715;40.642;-7.920;2023-02-18T04:16:46;97088.53;;;12.42;37.30
60874;BME280;46715;40.642;-7.920;2023-02-18T04:18:47;97067.59;;;12.48;36.85
60874;BME280;46715;40.642;-7.920;2023-02-18T04:20:48;97078.88;;;12.58;36.81
60874;BME280;46715;40.642;-7.920;2023-02-18T04:22:50;97073.91;;;12.57;36.95
60874;BME280;46715;40.642;-7.920;2023-02-18T04:24:50;97069.94;;;12.49;37.25
60874;BME280;46715;40.642;-7.920;2023-02-18T04:26:51;97066.06;;;12.57;36.68
60874;BME280;46715;40.642;-7.920;2023-02-18T04:28:52;97073.69;;;12.69;36.64
60874;BME280;46715;40.642;-7.920;2023-02-18T04:30:53;97072.38;;;12.82;36.28
60874;BME280;46715;40.642;-7.920;2023-02-18T04:32:54;97071.06;;;12.79;36.30
60874;BME280;46715;40.642;-7.920;2023-02-18T04:34:55;97065.81;;;12.89;36.22
60874;BME280;46715;40.642;-7.920;2023-02-18T04:36:55;97072.13;;;12.88;36.23
60874;BME280;46715;40.642;-7.920;2023-02-18T04:38:57;97067.91;;;12.87;36.52
60874;BME280;46715;40.642;-7.920;2023-02-18T04:40:59;97076.56;;;12.77;36.48
60874;BME280;46715;40.642;-7.920;2023-02-18T04:43:00;97080.22;;;12.82;36.52
60874;BME280;46715;40.642;-7.920;2023-02-18T04:45:02;97071.84;;;12.74;36.73
60874;BME280;46715;40.642;-7.920;2023-02-18T04:47:04;97072.59;;;12.59;37.07
60874;BME280;46715;40.642;-7.920;2023-02-18T04:49:05;97072.34;;;12.61;36.96
60874;BME280;46715;40.642;-7.920;2023-02-18T04:51:06;97075.47;;;12.58;36.66
60874;BME280;46715;40.642;-7.920;2023-02-18T04:53:07;97076.50;;;12.47;36.98
60874;BME280;46715;40.642;-7.920;2023-02-18T04:55:08;97079.91;;;12.47;36.90
60874;BME280;46715;40.642;-7.920;2023-02-18T04:57:09;97070.22;;;12.53;36.88
60874;BME280;46715;40.642;-7.920;2023-02-18T04:59:10;97070.75;;;12.50;36.73
60874;BME280;46715;40.642;-7.920;2023-02-18T05:01:11;97077.06;;;12.64;37.06
60874;BME280;46715;40.642;-7.920;2023-02-18T05:03:13;97074.16;;;12.50;37.05
60874;BME280;46715;40.642;-7.920;2023-02-18T05:05:14;97078.09;;;12.68;37.11
60874;BME280;46715;40.642;-7.920;2023-02-18T05:07:15;97077.28;;;12.47;37.18
60874;BME280;46715;40.642;-7.920;2023-02-18T05:09:15;97074.88;;;12.35;37.31
60874;BME280;46715;40.642;-7.920;2023-02-18T05:11:16;97071.78;;;12.38;37.51
60874;BME280;46715;40.642;-7.920;2023-02-18T05:13:17;97072.56;;;12.39;37.83
60874;BME280;46715;40.642;-7.920;2023-02-18T05:15:18;97073.31;;;12.29;37.92
60874;BME280;46715;40.642;-7.920;2023-02-18T05:17:19;97073.84;;;12.31;37.81
60874;BME280;46715;40.642;-7.920;2023-02-18T05:19:20;97073.84;;;12.26;38.19
60874;BME280;46715;40.642;-7.920;2023-02-18T05:21:21;97069.13;;;12.28;37.72
60874;BME280;46715;40.642;-7.920;2023-02-18T05:23:22;97068.13;;;12.55;37.62
60874;BME280;46715;40.642;-7.920;2023-02-18T05:25:25;97069.97;;;12.54;37.56
60874;BME280;46715;40.642;-7.920;2023-02-18T05:27:26;97063.97;;;12.54;37.85
60874;BME280;46715;40.642;-7.920;2023-02-18T05:29:26;97067.38;;;12.59;37.42
60874;BME280;46715;40.642;-7.920;2023-02-18T05:31:27;97057.41;;;12.61;37.50
60874;BME280;46715;40.642;-7.920;2023-02-18T05:33:28;97066.06;;;12.72;37.61
60874;BME280;46715;40.642;-7.920;2023-02-18T05:35:29;97055.34;;;12.64;37.46
60874;BME280;46715;40.642;-7.920;2023-02-18T05:37:30;97064.50;;;12.76;36.90
60874;BME280;46715;40.642;-7.920;2023-02-18T05:39:31;97064.22;;;12.73;37.04
60874;BME280;46715;40.642;-7.920;2023-02-18T05:41:31;97065.53;;;12.60;37.33
60874;BME280;46715;40.642;-7.920;2023-02-18T05:43:32;97065.81;;;12.69;37.18
60874;BME280;46715;40.642;-7.920;2023-02-18T05:45:56;97072.09;;;12.68;37.22
60874;BME280;46715;40.642;-7.920;2023-02-18T05:47:57;97076.81;;;12.71;36.92
60874;BME280;46715;40.642;-7.920;2023-02-18T05:49:57;97072.84;;;12.53;37.20
60874;BME280;46715;40.642;-7.920;2023-02-18T05:51:58;97081.72;;;12.41;37.65
60874;BME280;46715;40.642;-7.920;2023-02-18T05:53:59;97072.56;;;12.44;37.55
60874;BME280;46715;40.642;-7.920;2023-02-18T05:56:01;97082.25;;;12.49;37.41
60874;BME280;46715;40.642;-7.920;2023-02-18T05:58:02;97078.81;;;12.27;37.48
60874;BME280;46715;40.642;-7.920;2023-02-18T06:00:04;97082.97;;;12.23;38.11
60874;BME280;46715;40.642;-7.920;2023-02-18T06:02:05;97088.44;;;12.17;38.23
60874;BME280;46715;40.642;-7.920;2023-02-18T06:04:06;97084.22;;;12.05;38.00
60874;BME280;46715;40.642;-7.920;2023-02-18T06:06:08;97090.03;;;12.18;37.96
60874;BME280;46715;40.642;-7.920;2023-02-18T06:08:09;97083.72;;;12.14;37.58
60874;BME280;46715;40.642;-7.920;2023-02-18T06:10:09;97087.88;;;12.04;37.83
60874;BME280;46715;40.642;-7.920;2023-02-18T06:12:10;97089.47;;;12.16;37.53
60874;BME280;46715;40.642;-7.920;2023-02-18T06:14:11;97079.31;;;12.19;37.65
60874;BME280;46715;40.642;-7.920;2023-02-18T06:16:13;97082.69;;;12.20;37.56
60874;BME280;46715;40.642;-7.920;2023-02-18T06:18:13;97081.34;;;12.07;38.41
60874;BME280;46715;40.642;-7.920;2023-02-18T06:20:14;97081.59;;;12.00;37.97
60874;BME280;46715;40.642;-7.920;2023-02-18T06:22:15;97088.34;;;11.96;38.29
60874;BME280;46715;40.642;-7.920;2023-02-18T06:24:16;97092.22;;;11.88;38.38
60874;BME280;46715;40.642;-7.920;2023-02-18T06:26:17;97077.66;;;11.98;38.13
60874;BME280;46715;40.642;-7.920;2023-02-18T06:28:18;97076.28;;;11.90;38.06
60874;BME280;46715;40.642;-7.920;2023-02-18T06:30:18;97078.63;;;11.86;38.60
60874;BME280;46715;40.642;-7.920;2023-02-18T06:32:19;97081.19;;;11.81;38.17
60874;BME280;46715;40.642;-7.920;2023-02-18T06:34:20;97086.47;;;11.86;38.28
60874;BME280;46715;40.642;-7.920;2023-02-18T06:36:21;97080.53;;;12.01;38.08
60874;BME280;46715;40.642;-7.920;2023-02-18T06:38:22;97086.81;;;12.00;38.37
60874;BME280;46715;40.642;-7.920;2023-02-18T06:40:23;97086.47;;;11.86;37.98
60874;BME280;46715;40.642;-7.920;2023-02-18T06:42:23;97094.84;;;11.88;38.10
60874;BME280;46715;40.642;-7.920;2023-02-18T06:44:25;97086.53;;;11.97;38.41
60874;BME280;46715;40.642;-7.920;2023-02-18T06:46:25;97097.25;;;12.00;38.17
60874;BME280;46715;40.642;-7.920;2023-02-18T06:48:26;97094.13;;;12.03;37.73
60874;BME280;46715;40.642;-7.920;2023-02-18T06:50:27;97097.81;;;12.02;38.04
60874;BME280;46715;40.642;-7.920;2023-02-18T06:52:28;97091.81;;;12.07;37.90
60874;BME280;46715;40.642;-7.920;2023-02-18T06:54:30;97091.78;;;12.02;37.98
60874;BME280;46715;40.642;-7.920;2023-02-18T06:56:31;97089.38;;;11.95;38.27
60874;BME280;46715;40.642;-7.920;2023-02-18T06:58:32;97095.34;;;11.90;37.99
60874;BME280;46715;40.642;-7.920;2023-02-18T07:00:33;97092.19;;;11.83;38.70
60874;BME280;46715;40.642;-7.920;2023-02-18T07:02:33;97091.16;;;11.89;38.23
60874;BME280;46715;40.642;-7.920;2023-02-18T07:04:34;97083.59;;;11.83;38.63
60874;BME280;46715;40.642;-7.920;2023-02-18T07:06:35;97096.34;;;11.79;38.38
60874;BME280;46715;40.642;-7.920;2023-02-18T07:08:36;97089.31;;;11.85;38.98
60874;BME280;46715;40.642;-7.920;2023-02-18T07:10:38;97102.09;;;11.81;38.66
60874;BME280;46715;40.642;-7.920;2023-02-18T07:12:39;97102.94;;;11.92;38.51
60874;BME280;46715;40.642;-7.920;2023-02-18T07:14:40;97109.53;;;11.94;38.90
60874;BME280;46715;40.642;-7.920;2023-02-18T07:16:41;97105.81;;;11.90;38.53
60874;BME280;46715;40.642;-7.920;2023-02-18T07:18:41;97118.75;;;11.70;39.42
60874;BME280;46715;40.642;-7.920;2023-02-18T07:20:43;97112.09;;;11.47;39.66
60874;BME280;46715;40.642;-7.920;2023-02-18T07:22:44;97123.13;;;11.59;39.38
60874;BME280;46715;40.642;-7.920;2023-02-18T07:24:45;97113.50;;;11.59;39.47
60874;BME280;46715;40.642;-7.920;2023-02-18T07:26:46;97122.66;;;11.67;39.48
60874;BME280;46715;40.642;-7.920;2023-02-18T07:28:46;97127.88;;;11.62;39.56
60874;BME280;46715;40.642;-7.920;2023-02-18T07:30:47;97124.50;;;11.67;39.19
60874;BME280;46715;40.642;-7.920;2023-02-18T07:32:48;97116.44;;;11.73;39.73
60874;BME280;46715;40.642;-7.920;2023-02-18T07:34:50;97131.09;;;11.74;39.32
60874;BME280;46715;40.642;-7.920;2023-02-18T07:36:52;97124.50;;;11.67;39.69
60874;BME280;46715;40.642;-7.920;2023-02-18T07:38:53;97118.97;;;11.58;39.75
60874;BME280;46715;40.642;-7.920;2023-02-18T07:40:55;97134.34;;;11.54;40.01
60874;BME280;46715;40.642;-7.920;2023-02-18T07:42:56;97139.16;;;11.68;39.51
60874;BME280;46715;40.642;-7.920;2023-02-18T07:44:57;97139.19;;;11.78;39.46
60874;BME280;46715;40.642;-7.920;2023-02-18T07:46:59;97140.13;;;11.62;39.68
60874;BME280;46715;40.642;-7.920;2023-02-18T07:49:01;97154.66;;;11.85;39.50
60874;BME280;46715;40.642;-7.920;2023-02-18T07:51:07;97157.56;;;11.88;39.65
60874;BME280;46715;40.642;-7.920;2023-02-18T07:53:10;97157.13;;;11.97;39.44
60874;BME280;46715;40.642;-7.920;2023-02-18T07:55:11;97155.84;;;12.04;39.38
60874;BME280;46715;40.642;-7.920;2023-02-18T07:57:12;97153.56;;;12.23;38.98
60874;BME280;46715;40.642;-7.920;2023-02-18T07:59:13;97162.50;;;12.27;39.37
60874;BME280;46715;40.642;-7.920;2023-02-18T08:01:16;97164.56;;;12.20;39.34
60874;BME280;46715;40.642;-7.920;2023-02-18T08:03:17;97170.03;;;12.19;39.63
60874;BME280;46715;40.642;-7.920;2023-02-18T08:05:19;97173.91;;;12.11;39.90
60874;BME280;46715;40.642;-7.920;2023-02-18T08:07:21;97171.44;;;12.42;39.16
60874;BME280;46715;40.642;-7.920;2023-02-18T08:09:22;97174.47;;;13.12;38.15
60874;BME280;46715;40.642;-7.920;2023-02-18T08:11:23;97172.41;;;13.71;36.88
60874;BME280;46715;40.642;-7.920;2023-02-18T08:13:24;97174.06;;;14.38;35.75
60874;BME280;46715;40.642;-7.920;2023-02-18T08:15:25;97164.34;;;14.48;35.25
60874;BME280;46715;40.642;-7.920;2023-02-18T08:17:26;97164.97;;;14.20;35.44
60874;BME280;46715;40.642;-7.920;2023-02-18T08:19:27;97171.06;;;14.00;35.99
60874;BME280;46715;40.642;-7.920;2023-02-18T08:21:28;97174.97;;;14.07;35.93
60874;BME280;46715;40.642;-7.920;2023-02-18T08:23:29;97173.03;;;14.44;35.54
60874;BME280;46715;40.642;-7.920;2023-02-18T08:25:29;97183.00;;;14.37;35.45
60874;BME280;46715;40.642;-7.920;2023-02-18T08:27:30;97181.28;;;14.06;36.10
60874;BME280;46715;40.642;-7.920;2023-02-18T08:29:31;97180.53;;;13.75;36.56
60874;BME280;46715;40.642;-7.920;2023-02-18T08:31:32;97185.81;;;13.59;36.75
60874;BME280;46715;40.642;-7.920;2023-02-18T08:33:33;97179.25;;;13.62;36.97
60874;BME280;46715;40.642;-7.920;2023-02-18T08:35:34;97187.63;;;13.64;37.01
60874;BME280;46715;40.642;-7.920;2023-02-18T08:37:35;97183.97;;;13.65;37.11
60874;BME280;46715;40.642;-7.920;2023-02-18T08:39:36;97192.84;;;13.59;36.90
60874;BME280;46715;40.642;-7.920;2023-02-18T08:41:37;97192.84;;;13.85;36.96
60874;BME280;46715;40.642;-7.920;2023-02-18T08:43:38;97193.31;;;14.07;36.57
60874;BME280;46715;40.642;-7.920;2023-02-18T08:45:41;97193.09;;;14.79;35.56
60874;BME280;46715;40.642;-7.920;2023-02-18T08:47:42;97195.56;;;15.10;35.16
60874;BME280;46715;40.642;-7.920;2023-02-18T08:49:43;97199.19;;;15.14;34.66
60874;BME280;46715;40.642;-7.920;2023-02-18T08:51:44;97193.91;;;15.20;34.46
60874;BME280;46715;40.642;-7.920;2023-02-18T08:53:46;97196.97;;;14.92;35.18
60874;BME280;46715;40.642;-7.920;2023-02-18T08:55:47;97204.94;;;14.72;35.97
60874;BME280;46715;40.642;-7.920;2023-02-18T08:57:48;97206.31;;;14.48;36.24
60874;BME280;46715;40.642;-7.920;2023-02-18T08:59:49;97207.97;;;14.29;36.18
60874;BME280;46715;40.642;-7.920;2023-02-18T09:01:50;97213.53;;;14.02;36.70
60874;BME280;46715;40.642;-7.920;2023-02-18T09:03:50;97215.16;;;13.72;37.74
60874;BME280;46715;40.642;-7.920;2023-02-18T09:05:51;97220.38;;;13.61;38.34
60874;BME280;46715;40.642;-7.920;2023-02-18T09:07:52;97219.34;;;13.52;38.02
60874;BME280;46715;40.642;-7.920;2023-02-18T09:09:53;97218.28;;;13.48;38.43
60874;BME280;46715;40.642;-7.920;2023-02-18T09:11:54;97229.28;;;13.40;38.63
60874;BME280;46715;40.642;-7.920;2023-02-18T09:13:55;97226.13;;;13.33;38.41
60874;BME280;46715;40.642;-7.920;2023-02-18T09:16:01;97222.97;;;13.41;38.78
60874;BME280;46715;40.642;-7.920;2023-02-18T09:18:03;97221.44;;;13.55;38.07
60874;BME280;46715;40.642;-7.920;2023-02-18T09:20:05;97214.88;;;13.63;37.78
60874;BME280;46715;40.642;-7.920;2023-02-18T09:22:06;97224.06;;;13.55;38.11
60874;BME280;46715;40.642;-7.920;2023-02-18T09:24:07;97226.66;;;13.66;38.22
60874;BME280;46715;40.642;-7.920;2023-02-18T09:26:13;97229.81;;;13.47;38.35
60874;BME280;46715;40.642;-7.920;2023-02-18T09:28:14;97231.91;;;13.66;37.53
60874;BME280;46715;40.642;-7.920;2023-02-18T09:30:14;97228.75;;;13.69;38.10
60874;BME280;46715;40.642;-7.920;2023-02-18T09:32:16;97236.38;;;13.65;38.27
60874;BME280;46715;40.642;-7.920;2023-02-18T09:34:17;97237.16;;;13.50;38.15
60874;BME280;46715;40.642;-7.920;2023-02-18T09:36:18;97242.09;;;13.26;38.66
60874;BME280;46715;40.642;-7.920;2023-02-18T09:38:20;97244.97;;;13.24;38.66
60874;BME280;46715;40.642;-7.920;2023-02-18T09:40:26;97243.38;;;13.34;38.46
60874;BME280;46715;40.642;-7.920;2023-02-18T09:42:31;97248.06;;;13.21;38.91
60874;BME280;46715;40.642;-7.920;2023-02-18T09:44:43;97245.97;;;13.18;38.74
60874;BME280;46715;40.642;-7.920;2023-02-18T09:49:00;97240.22;;;13.16;39.87
60874;BME280;46715;40.642;-7.920;2023-02-18T09:51:02;97250.97;;;13.20;39.30
60874;BME280;46715;40.642;-7.920;2023-02-18T09:53:03;97250.16;;;13.14;39.62
60874;BME280;46715;40.642;-7.920;2023-02-18T09:55:37;97248.06;;;13.21;39.96
60874;BME280;46715;40.642;-7.920;2023-02-18T09:57:48;97246.28;;;13.32;39.39
60874;BME280;46715;40.642;-7.920;2023-02-18T09:59:56;97249.69;;;13.33;39.85
60874;BME280;46715;40.642;-7.920;2023-02-18T10:01:59;97246.06;;;13.44;39.17
60874;BME280;46715;40.642;-7.920;2023-02-18T10:04:03;97247.66;;;13.60;39.49
60874;BME280;46715;40.642;-7.920;2023-02-18T10:06:25;97240.03;;;13.85;39.57
60874;BME280;46715;40.642;-7.920;2023-02-18T10:08:29;97246.31;;;13.89;39.51
60874;BME280;46715;40.642;-7.920;2023-02-18T10:10:45;97254.16;;;13.99;38.76
60874;BME280;46715;40.642;-7.920;2023-02-18T10:12:47;97241.09;;;13.94;39.23
60874;BME280;46715;40.642;-7.920;2023-02-18T10:14:54;97242.88;;;14.14;39.13
60874;BME280;46715;40.642;-7.920;2023-02-18T10:16:57;97249.94;;;14.29;39.05
60874;BME280;46715;40.642;-7.920;2023-02-18T10:19:00;97256.22;;;14.33;38.73
60874;BME280;46715;40.642;-7.920;2023-02-18T10:21:09;97247.84;;;14.26;38.87
60874;BME280;46715;40.642;-7.920;2023-02-18T10:23:12;97243.63;;;14.35;38.65
60874;BME280;46715;40.642;-7.920;2023-02-18T10:25:18;97250.44;;;14.46;38.71
60874;BME280;46715;40.642;-7.920;2023-02-18T10:27:24;97249.38;;;14.42;38.79
60874;BME280;46715;40.642;-7.920;2023-02-18T10:29:26;97255.63;;;14.62;38.86
60874;BME280;46715;40.642;-7.920;2023-02-18T10:31:32;97250.00;;;14.89;38.26
60874;BME280;46715;40.642;-7.920;2023-02-18T10:33:41;97250.19;;;15.08;38.22
60874;BME280;46715;40.642;-7.920;2023-02-18T10:35:56;97248.69;;;15.37;38.20
60874;BME280;46715;40.642;-7.920;2023-02-18T10:38:19;97254.88;;;15.56;37.88
60874;BME280;46715;40.642;-7.920;2023-02-18T10:40:34;97255.22;;;15.79;37.06
60874;BME280;46715;40.642;-7.920;2023-02-18T10:51:51;97253.41;;;15.79;37.30
60874;BME280;46715;40.642;-7.920;2023-02-18T10:53:53;97252.88;;;15.77;37.64
60874;BME280;46715;40.642;-7.920;2023-02-18T10:55:53;97264.72;;;15.80;37.43
60874;BME280;46715;40.642;-7.920;2023-02-18T10:57:56;97257.59;;;15.80;37.02
60874;BME280;46715;40.642;-7.920;2023-02-18T11:00:16;97256.31;;;15.73;37.17
60874;BME280;46715;40.642;-7.920;2023-02-18T11:02:18;97255.75;;;15.81;37.66
60874;BME280;46715;40.642;-7.920;2023-02-18T11:04:20;97252.34;;;15.75;37.72
60874;BME280;46715;40.642;-7.920;2023-02-18T11:06:30;97256.28;;;15.78;37.36
60874;BME280;46715;40.642;-7.920;2023-02-18T11:08:41;97260.75;;;15.82;37.07
60874;BME280;46715;40.642;-7.920;2023-02-18T11:10:45;97259.69;;;15.83;37.76
60874;BME280;46715;40.642;-7.920;2023-02-18T11:12:49;97266.03;;;15.77;38.24
60874;BME280;46715;40.642;-7.920;2023-02-18T11:15:17;97263.81;;;15.60;38.79
60874;BME280;46715;40.642;-7.920;2023-02-18T11:17:27;97271.31;;;15.72;38.87
60874;BME280;46715;40.642;-7.920;2023-02-18T11:19:34;97267.16;;;15.66;38.82
60874;BME280;46715;40.642;-7.920;2023-02-18T11:21:37;97266.66;;;15.64;38.34
60874;BME280;46715;40.642;-7.920;2023-02-18T11:23:47;97265.88;;;15.63;38.62
60874;BME280;46715;40.642;-7.920;2023-02-18T11:28:03;97269.09;;;15.55;38.97
60874;BME280;46715;40.642;-7.920;2023-02-18T11:30:16;97266.91;;;15.62;38.74
60874;BME280;46715;40.642;-7.920;2023-02-18T11:32:19;97276.59;;;15.67;38.58
60874;BME280;46715;40.642;-7.920;2023-02-18T11:34:26;97267.94;;;15.66;39.79
60874;BME280;46715;40.642;-7.920;2023-02-18T11:36:32;97269.53;;;15.67;39.38